Terminal Aerodrome Forecast
Issued by NWS

Home | Current Version | Previous Version | Text Only | Print | Product List | Glossary On
Versions: 1 2 3 4 5 6 7 8 9 10 11 12 13 14 15 16 17 18
000
FTUS42 KMLB 010543
TAFTIX
TAF
KTIX 010543Z 0106/0206 00000KT P6SM BKN150 BKN250
     FM011400 20006KT P6SM FEW020 SCT150 BKN250
     FM012000 14008KT P6SM VCTS SCT035 SCT050CB
     FM020000 18004KT P6SM VCSH FEW040 BKN060 BKN250
      AMD NOT SKED TIL 011100=

USA.gov is the U.S. government's official web portal to all federal, state and local government web resources and services.